Time;durP1;ratioP1;P1;durP2;ratioP2;P2;SDS_P1;SDS_P2;PMS_P1;PMS_P2;Temp;Humidity;BMP_temperature;BMP_pressure;BME280_temperature;BME280_humidity;BME280_pressure;Samples;Min_cycle;Max_cycle;Signal;HPM_P1;HPM_P2
2024/02/28 00:01:24;;;;;;;24.80;11.50;;;;;;;;;;6210375;23;20242;-91
2024/02/28 00:04:30;;;;;;;24.23;10.30;;;;;;;;;;6211401;23;20171;-91
2024/02/28 00:07:36;;;;;;;24.33;10.80;;;;;;;;;;6212795;23;20168;-93
2024/02/28 00:10:41;;;;;;;25.60;11.57;;;;;;;;;;6212218;23;20171;-91
2024/02/28 00:13:46;;;;;;;23.07;10.97;;;;;;;;;;6211913;23;20172;-91
2024/02/28 00:16:51;;;;;;;22.77;11.13;;;;;;;;;;6213748;23;20195;-90
2024/02/28 00:19:57;;;;;;;26.83;11.33;;;;;;;;;;6211482;23;20249;-91
2024/02/28 00:23:02;;;;;;;23.60;11.53;;;;;;;;;;6210898;23;20269;-91
2024/02/28 00:26:07;;;;;;;22.90;11.23;;;;;;;;;;6211883;23;20151;-90
2024/02/28 00:29:13;;;;;;;23.70;11.30;;;;;;;;;;6212835;23;20163;-91
2024/02/28 00:32:20;;;;;;;22.70;11.53;;;;;;;;;;6213257;23;20175;-94
2024/02/28 00:35:26;;;;;;;23.87;11.60;;;;;;;;;;6212155;23;20187;-91
2024/02/28 00:38:32;;;;;;;24.80;11.13;;;;;;;;;;6213919;23;20167;-92
2024/02/28 00:41:37;;;;;;;28.03;10.77;;;;;;;;;;6211281;23;20217;-91
2024/02/28 00:44:42;;;;;;;25.77;11.57;;;;;;;;;;6212248;23;20182;-92
2024/02/28 00:47:47;;;;;;;25.97;12.07;;;;;;;;;;6210124;23;20170;-91
2024/02/28 00:50:54;;;;;;;25.63;11.97;;;;;;;;;;6210670;23;20259;-92
2024/02/28 00:54:00;;;;;;;27.10;11.90;;;;;;;;;;6211339;23;20190;-92
2024/02/28 00:57:05;;;;;;;28.23;11.67;;;;;;;;;;6209978;23;20242;-91
2024/02/28 01:00:11;;;;;;;25.47;11.60;;;;;;;;;;6209446;23;20170;-91
2024/02/28 01:03:18;;;;;;;27.50;12.20;;;;;;;;;;6209792;23;20176;-92
2024/02/28 01:06:25;;;;;;;25.97;11.60;;;;;;;;;;6207637;23;20159;-91
2024/02/28 01:09:30;;;;;;;25.20;11.40;;;;;;;;;;6210989;23;20288;-92
2024/02/28 01:12:35;;;;;;;29.63;13.33;;;;;;;;;;6207936;23;20175;-91
2024/02/28 01:15:41;;;;;;;26.47;12.33;;;;;;;;;;6209532;23;20175;-92
2024/02/28 01:18:47;;;;;;;26.60;11.13;;;;;;;;;;6208974;23;20170;-91
2024/02/28 01:21:54;;;;;;;22.57;11.03;;;;;;;;;;6207468;23;20201;-91
2024/02/28 01:24:59;;;;;;;24.13;11.50;;;;;;;;;;6209910;23;20239;-91
2024/02/28 01:28:05;;;;;;;25.10;11.63;;;;;;;;;;6210358;23;20163;-90
2024/02/28 01:31:11;;;;;;;22.93;10.67;;;;;;;;;;6209239;23;20175;-91
2024/02/28 01:34:16;;;;;;;23.53;11.60;;;;;;;;;;6211619;23;20171;-90
2024/02/28 01:37:23;;;;;;;26.17;11.03;;;;;;;;;;6209313;23;20253;-92
2024/02/28 01:40:32;;;;;;;27.10;11.27;;;;;;;;;;6210007;23;20155;-91
2024/02/28 01:43:38;;;;;;;21.97;10.87;;;;;;;;;;6209950;23;20155;-91
2024/02/28 01:46:43;;;;;;;22.13;10.90;;;;;;;;;;6209293;23;20167;-91
2024/02/28 01:49:50;;;;;;;26.20;11.87;;;;;;;;;;6210425;23;20635;-92
2024/02/28 01:52:58;;;;;;;27.27;11.27;;;;;;;;;;6213575;23;20190;-92
2024/02/28 01:56:04;;;;;;;28.23;11.83;;;;;;;;;;6209653;23;20224;-91
2024/02/28 01:59:11;;;;;;;28.03;11.80;;;;;;;;;;6210745;23;20611;-92
2024/02/28 02:02:16;;;;;;;32.10;13.23;;;;;;;;;;6209648;23;20269;-91
2024/02/28 02:05:22;;;;;;;24.90;12.07;;;;;;;;;;6211573;23;20292;-92
2024/02/28 02:08:32;;;;;;;31.43;12.43;;;;;;;;;;6211753;23;20183;-91
2024/02/28 02:11:37;;;;;;;25.77;12.47;;;;;;;;;;6210801;23;20171;-92
2024/02/28 02:14:43;;;;;;;29.20;13.17;;;;;;;;;;6209732;23;20171;-91
2024/02/28 02:17:48;;;;;;;27.40;12.70;;;;;;;;;;6209896;23;20175;-91
2024/02/28 02:20:56;;;;;;;28.97;12.93;;;;;;;;;;6209678;23;20175;-91
2024/02/28 02:24:03;;;;;;;30.13;13.47;;;;;;;;;;6209627;23;20156;-90
2024/02/28 02:27:08;;;;;;;28.17;12.43;;;;;;;;;;6208342;23;20246;-91
2024/02/28 02:30:13;;;;;;;30.37;13.50;;;;;;;;;;6208190;23;20291;-91
2024/02/28 02:33:18;;;;;;;25.43;12.20;;;;;;;;;;6206394;23;20174;-91
2024/02/28 02:36:24;;;;;;;30.13;13.00;;;;;;;;;;6208507;23;20223;-92
2024/02/28 02:39:30;;;;;;;26.93;12.33;;;;;;;;;;6207532;23;20174;-91
2024/02/28 02:42:36;;;;;;;24.87;11.77;;;;;;;;;;6209137;23;20198;-89
2024/02/28 02:45:42;;;;;;;23.30;11.63;;;;;;;;;;6206982;23;20163;-92
2024/02/28 02:48:48;;;;;;;24.03;11.40;;;;;;;;;;6208491;23;20171;-92
2024/02/28 02:51:53;;;;;;;28.80;11.80;;;;;;;;;;6208588;23;20175;-91
2024/02/28 02:55:00;;;;;;;28.03;12.07;;;;;;;;;;6209644;23;20167;-92
2024/02/28 02:58:05;;;;;;;23.33;11.63;;;;;;;;;;6208536;23;20249;-92
2024/02/28 03:01:10;;;;;;;26.53;11.60;;;;;;;;;;6209647;23;20175;-91
2024/02/28 03:04:15;;;;;;;21.97;10.90;;;;;;;;;;6211163;23;20221;-93
2024/02/28 03:07:21;;;;;;;24.10;11.20;;;;;;;;;;6211314;23;20239;-91
2024/02/28 03:10:28;;;;;;;26.60;11.13;;;;;;;;;;6212659;23;20194;-93
2024/02/28 03:13:34;;;;;;;28.10;12.47;;;;;;;;;;6216063;23;20188;-91
2024/02/28 03:16:43;;;;;;;31.03;13.67;;;;;;;;;;6214531;23;20178;-90
2024/02/28 03:19:48;;;;;;;27.53;12.97;;;;;;;;;;6216469;23;20167;-91
2024/02/28 03:22:54;;;;;;;26.43;12.33;;;;;;;;;;6214356;23;20210;-92
2024/02/28 03:26:03;;;;;;;26.60;12.77;;;;;;;;;;6215384;23;20163;-92
2024/02/28 03:29:08;;;;;;;24.07;12.23;;;;;;;;;;6215507;23;20233;-91
2024/02/28 03:32:14;;;;;;;24.00;11.67;;;;;;;;;;6214389;23;20172;-91
2024/02/28 03:35:19;;;;;;;22.87;11.37;;;;;;;;;;6216659;23;20147;-92
2024/02/28 03:38:24;;;;;;;26.20;12.10;;;;;;;;;;6216524;23;20595;-92
2024/02/28 03:41:31;;;;;;;21.57;11.10;;;;;;;;;;6218027;23;20183;-93
2024/02/28 03:44:37;;;;;;;22.70;11.50;;;;;;;;;;6212265;23;20293;-91
2024/02/28 03:47:42;;;;;;;24.37;11.33;;;;;;;;;;6210245;23;20626;-91
2024/02/28 03:50:47;;;;;;;23.40;11.53;;;;;;;;;;6210659;23;20171;-92
2024/02/28 03:53:52;;;;;;;21.57;10.97;;;;;;;;;;6211031;23;20170;-92
2024/02/28 03:57:02;;;;;;;20.83;10.70;;;;;;;;;;6211158;23;20168;-91
2024/02/28 04:00:08;;;;;;;19.53;10.73;;;;;;;;;;6211612;23;20166;-92
2024/02/28 04:03:19;;;;;;;21.80;10.70;;;;;;;;;;6211253;23;20214;-90
2024/02/28 04:06:24;;;;;;;18.97;10.37;;;;;;;;;;6211743;23;20603;-90
2024/02/28 04:09:30;;;;;;;23.57;10.93;;;;;;;;;;6209611;23;20167;-90
2024/02/28 04:12:37;;;;;;;22.63;12.07;;;;;;;;;;6209941;23;20167;-92
2024/02/28 04:15:42;;;;;;;22.63;11.20;;;;;;;;;;6209089;23;20279;-91
2024/02/28 04:18:47;;;;;;;23.40;11.70;;;;;;;;;;6207038;23;20171;-89
2024/02/28 04:21:52;;;;;;;21.73;11.13;;;;;;;;;;6207660;23;20182;-90
2024/02/28 04:24:57;;;;;;;27.70;12.47;;;;;;;;;;6208149;23;20174;-91
2024/02/28 04:28:04;;;;;;;26.07;12.40;;;;;;;;;;6209082;23;20236;-90
2024/02/28 04:31:09;;;;;;;25.43;11.57;;;;;;;;;;6211478;23;20171;-91
2024/02/28 04:34:15;;;;;;;26.37;12.27;;;;;;;;;;6210500;23;20191;-90
2024/02/28 04:37:20;;;;;;;26.57;12.37;;;;;;;;;;6210854;23;20216;-91
2024/02/28 04:40:26;;;;;;;24.53;11.87;;;;;;;;;;6211020;23;20203;-91
2024/02/28 04:43:33;;;;;;;29.63;13.37;;;;;;;;;;6208785;23;20329;-91
2024/02/28 04:46:39;;;;;;;27.47;13.03;;;;;;;;;;6211318;23;20167;-89
2024/02/28 04:49:43;;;;;;;27.87;14.13;;;;;;;;;;6210732;23;20442;-91
2024/02/28 04:52:48;;;;;;;28.13;12.90;;;;;;;;;;6209216;23;20221;-91
2024/02/28 04:55:53;;;;;;;26.83;13.07;;;;;;;;;;6210568;23;20253;-90
2024/02/28 04:59:00;;;;;;;27.43;13.57;;;;;;;;;;6208553;23;20168;-90
2024/02/28 05:02:06;;;;;;;27.77;12.53;;;;;;;;;;6209229;23;20215;-92
2024/02/28 05:05:11;;;;;;;27.37;13.10;;;;;;;;;;6209232;23;20179;-91
2024/02/28 05:08:16;;;;;;;29.53;14.03;;;;;;;;;;6206358;23;20179;-91
2024/02/28 05:11:21;;;;;;;28.97;12.93;;;;;;;;;;6205199;23;20170;-92
2024/02/28 05:14:27;;;;;;;26.43;14.00;;;;;;;;;;6207327;23;20171;-91
2024/02/28 05:17:32;;;;;;;29.07;13.50;;;;;;;;;;6208280;23;20306;-91
2024/02/28 05:20:37;;;;;;;30.13;13.50;;;;;;;;;;6208872;23;20174;-91
2024/02/28 05:23:43;;;;;;;32.50;13.37;;;;;;;;;;6208213;23;20202;-92
2024/02/28 05:26:48;;;;;;;28.70;12.93;;;;;;;;;;6209733;23;20238;-91
2024/02/28 05:29:55;;;;;;;25.20;11.83;;;;;;;;;;6211005;23;20290;-91
2024/02/28 05:33:00;;;;;;;28.33;12.40;;;;;;;;;;6209989;23;20250;-92
2024/02/28 05:36:07;;;;;;;22.13;11.83;;;;;;;;;;6211280;23;20155;-92
2024/02/28 05:39:12;;;;;;;25.73;11.87;;;;;;;;;;6212522;23;20182;-92
2024/02/28 05:42:21;;;;;;;27.97;12.20;;;;;;;;;;6209265;23;20284;-92
2024/02/28 05:45:40;;;;;;;27.07;12.17;;;;;;;;;;6209236;23;20258;-92
2024/02/28 05:48:46;;;;;;;24.87;12.07;;;;;;;;;;6209854;23;20166;-92
2024/02/28 05:51:51;;;;;;;25.00;11.83;;;;;;;;;;6208753;23;20302;-92
2024/02/28 05:54:56;;;;;;;26.87;12.90;;;;;;;;;;6207635;23;20170;-91
2024/02/28 05:58:02;;;;;;;24.13;12.03;;;;;;;;;;6209592;23;20170;-92
2024/02/28 06:01:08;;;;;;;24.83;11.87;;;;;;;;;;6208927;23;20214;-92
2024/02/28 06:04:13;;;;;;;21.87;11.73;;;;;;;;;;6210644;23;20199;-93
2024/02/28 06:07:19;;;;;;;24.17;12.33;;;;;;;;;;6212673;23;20188;-93
2024/02/28 06:10:24;;;;;;;25.03;12.70;;;;;;;;;;6212981;23;20187;-92
2024/02/28 06:13:30;;;;;;;25.43;11.77;;;;;;;;;;6216101;23;20167;-91
2024/02/28 06:16:37;;;;;;;23.80;12.07;;;;;;;;;;6210834;23;20168;-91
2024/02/28 06:19:42;;;;;;;26.40;12.00;;;;;;;;;;6215328;23;20179;-92
2024/02/28 06:22:47;;;;;;;30.00;12.37;;;;;;;;;;6229523;23;20202;-91
2024/02/28 06:25:52;;;;;;;27.53;11.93;;;;;;;;;;6209620;23;20184;-89
2024/02/28 06:29:01;;;;;;;31.20;13.27;;;;;;;;;;6212877;23;20179;-90
2024/02/28 06:32:09;;;;;;;23.53;11.77;;;;;;;;;;6210337;23;20241;-90
2024/02/28 06:38:34;;;;;;;35.30;14.57;;;;;;;;;;6215214;23;20186;-91
2024/02/28 06:41:40;;;;;;;25.60;12.60;;;;;;;;;;6208966;23;20499;-91
2024/02/28 06:44:45;;;;;;;29.20;13.13;;;;;;;;;;6209748;23;20178;-91
2024/02/28 06:47:52;;;;;;;25.57;12.67;;;;;;;;;;6210234;23;20246;-92
2024/02/28 06:50:57;;;;;;;25.03;12.87;;;;;;;;;;6209452;23;20727;-93
2024/02/28 06:54:03;;;;;;;28.50;13.97;;;;;;;;;;6207520;23;20193;-91
2024/02/28 06:57:08;;;;;;;29.50;13.43;;;;;;;;;;6207923;23;20211;-91
2024/02/28 07:00:14;;;;;;;30.03;13.23;;;;;;;;;;6207619;23;20254;-91
2024/02/28 07:03:21;;;;;;;29.23;13.20;;;;;;;;;;6210724;23;20186;-89
2024/02/28 07:06:26;;;;;;;32.20;13.17;;;;;;;;;;6211564;23;20506;-91
2024/02/28 07:09:32;;;;;;;27.90;13.47;;;;;;;;;;6208312;23;20171;-91
2024/02/28 07:12:37;;;;;;;32.57;14.40;;;;;;;;;;6209912;23;20170;-92
2024/02/28 07:15:43;;;;;;;28.33;13.27;;;;;;;;;;6208769;23;20214;-91
2024/02/28 07:18:50;;;;;;;31.70;14.03;;;;;;;;;;6211194;23;20251;-91
2024/02/28 07:21:56;;;;;;;33.33;14.87;;;;;;;;;;6210905;23;20179;-91
2024/02/28 07:25:01;;;;;;;30.90;15.00;;;;;;;;;;6211401;23;20170;-91
2024/02/28 07:28:07;;;;;;;31.83;14.07;;;;;;;;;;6212498;23;20166;-92
2024/02/28 07:31:16;;;;;;;37.47;16.83;;;;;;;;;;6208181;23;20182;-91
2024/02/28 07:34:22;;;;;;;114.23;33.47;;;;;;;;;;6213938;23;20210;-89
2024/02/28 07:37:27;;;;;;;31.83;15.88;;;;;;;;;;6213369;23;20150;-90
2024/02/28 07:40:36;;;;;;;30.17;14.40;;;;;;;;;;6208944;23;20171;-90
2024/02/28 07:43:43;;;;;;;28.93;13.73;;;;;;;;;;6208916;23;20195;-91
2024/02/28 07:46:50;;;;;;;38.25;14.57;;;;;;;;;;6206567;23;20166;-91
2024/02/28 07:49:56;;;;;;;24.88;13.50;;;;;;;;;;6208267;23;20162;-92
2024/02/28 07:53:01;;;;;;;31.97;14.53;;;;;;;;;;6207144;23;20151;-91
2024/02/28 07:56:07;;;;;;;102.60;36.90;;;;;;;;;;6210217;23;20236;-91
2024/02/28 07:59:12;;;;;;;39.40;17.83;;;;;;;;;;6208699;23;20167;-91
2024/02/28 08:02:19;;;;;;;49.80;21.20;;;;;;;;;;6209477;23;20599;-92
2024/02/28 08:05:33;;;;;;;39.63;17.67;;;;;;;;;;6209502;23;20179;-92
2024/02/28 08:08:38;;;;;;;34.27;17.20;;;;;;;;;;6212210;23;20155;-91
2024/02/28 08:11:43;;;;;;;32.97;15.57;;;;;;;;;;6210863;23;20172;-91
2024/02/28 08:14:51;;;;;;;31.97;15.57;;;;;;;;;;6210195;23;20174;-90
2024/02/28 08:17:57;;;;;;;32.63;15.17;;;;;;;;;;6209832;23;20227;-91
2024/02/28 08:21:04;;;;;;;32.17;15.13;;;;;;;;;;6207724;23;20171;-90
2024/02/28 08:24:10;;;;;;;38.30;14.82;;;;;;;;;;6210365;23;20301;-91
2024/02/28 08:27:16;;;;;;;31.98;15.05;;;;;;;;;;6207002;23;20171;-91
2024/02/28 08:30:21;;;;;;;38.50;14.87;;;;;;;;;;6209388;23;20159;-92
2024/02/28 08:33:26;;;;;;;29.48;14.32;;;;;;;;;;6210644;23;20249;-90
2024/02/28 08:36:35;;;;;;;30.53;14.33;;;;;;;;;;6210890;23;20246;-90
2024/02/28 08:39:40;;;;;;;37.80;16.60;;;;;;;;;;6212516;23;20184;-91
2024/02/28 08:42:46;;;;;;;36.23;16.80;;;;;;;;;;6211501;23;20175;-90
2024/02/28 08:45:54;;;;;;;30.30;15.60;;;;;;;;;;6211016;23;20171;-91
2024/02/28 08:48:59;;;;;;;47.05;19.77;;;;;;;;;;6210392;23;20175;-90
2024/02/28 08:52:06;;;;;;;35.10;15.77;;;;;;;;;;6211644;23;20247;-91
2024/02/28 08:55:12;;;;;;;41.10;16.90;;;;;;;;;;6210103;23;20163;-90
2024/02/28 08:58:17;;;;;;;37.33;16.80;;;;;;;;;;6210433;23;20172;-91
2024/02/28 09:01:23;;;;;;;46.50;16.90;;;;;;;;;;6214359;23;20207;-91
2024/02/28 09:04:38;;;;;;;44.88;18.33;;;;;;;;;;6212269;23;20330;-91
2024/02/28 09:07:46;;;;;;;48.47;18.40;;;;;;;;;;6228584;23;20546;-90
2024/02/28 09:10:58;;;;;;;47.63;18.85;;;;;;;;;;6210395;23;20175;-90
2024/02/28 09:14:03;;;;;;;48.53;19.13;;;;;;;;;;6210566;23;20163;-92
2024/02/28 09:17:09;;;;;;;44.55;17.27;;;;;;;;;;6208550;23;20549;-91
2024/02/28 09:20:15;;;;;;;45.60;18.90;;;;;;;;;;6211176;23;20167;-91
2024/02/28 09:23:28;;;;;;;41.20;17.90;;;;;;;;;;6209843;23;20530;-92
2024/02/28 09:26:33;;;;;;;57.08;19.55;;;;;;;;;;6221574;23;20222;-92
2024/02/28 09:29:39;;;;;;;48.55;19.98;;;;;;;;;;6210105;23;20226;-92
2024/02/28 09:32:47;;;;;;;49.53;20.38;;;;;;;;;;6210321;23;20213;-91
2024/02/28 09:35:52;;;;;;;52.75;21.48;;;;;;;;;;6210556;23;20279;-92
2024/02/28 09:38:58;;;;;;;50.00;21.20;;;;;;;;;;6212558;23;20175;-91
2024/02/28 09:42:05;;;;;;;54.85;21.17;;;;;;;;;;6227508;23;20266;-92
2024/02/28 09:45:11;;;;;;;56.72;23.60;;;;;;;;;;6209995;23;20198;-91
2024/02/28 09:48:18;;;;;;;60.03;21.67;;;;;;;;;;6207989;23;20214;-91
2024/02/28 09:51:24;;;;;;;59.88;22.00;;;;;;;;;;6210654;23;20175;-91
2024/02/28 09:54:31;;;;;;;69.47;23.75;;;;;;;;;;6208623;23;20190;-91
2024/02/28 09:57:38;;;;;;;72.78;24.27;;;;;;;;;;6211160;23;20187;-91
2024/02/28 10:00:43;;;;;;;70.60;24.90;;;;;;;;;;6211380;23;20175;-91
2024/02/28 10:03:49;;;;;;;71.25;25.23;;;;;;;;;;6211660;23;20247;-91
2024/02/28 10:06:54;;;;;;;77.70;25.52;;;;;;;;;;6225216;23;20166;-90
2024/02/28 10:10:03;;;;;;;72.72;25.63;;;;;;;;;;6208546;23;20191;-90
2024/02/28 10:13:09;;;;;;;77.28;25.35;;;;;;;;;;6208135;23;20291;-91
2024/02/28 10:16:15;;;;;;;72.78;25.92;;;;;;;;;;6210492;23;20167;-91
2024/02/28 10:19:20;;;;;;;84.05;26.10;;;;;;;;;;6210653;23;20174;-92
2024/02/28 10:22:26;;;;;;;74.53;26.38;;;;;;;;;;6210073;23;20255;-91
2024/02/28 10:25:33;;;;;;;77.65;26.73;;;;;;;;;;6206476;23;20217;-91
2024/02/28 10:28:39;;;;;;;82.40;26.33;;;;;;;;;;6210295;23;20509;-91
2024/02/28 10:31:45;;;;;;;91.45;27.65;;;;;;;;;;6208138;23;20162;-91
2024/02/28 10:34:50;;;;;;;73.68;26.23;;;;;;;;;;6209529;23;20166;-91
2024/02/28 10:37:56;;;;;;;90.70;27.70;;;;;;;;;;6209465;23;20186;-91
2024/02/28 10:41:02;;;;;;;80.25;27.02;;;;;;;;;;6209868;23;20171;-88
2024/02/28 10:44:07;;;;;;;92.65;28.00;;;;;;;;;;6208684;23;20753;-92
2024/02/28 10:47:13;;;;;;;86.03;27.10;;;;;;;;;;6208623;23;20588;-91
2024/02/28 10:50:18;;;;;;;85.63;27.10;;;;;;;;;;6207851;23;20183;-92
2024/02/28 10:53:24;;;;;;;85.15;28.77;;;;;;;;;;6206259;23;20172;-92
2024/02/28 10:56:31;;;;;;;81.03;26.88;;;;;;;;;;6207954;23;20202;-91
2024/02/28 10:59:39;;;;;;;85.35;27.40;;;;;;;;;;6207881;23;20171;-91
2024/02/28 11:02:44;;;;;;;90.50;27.40;;;;;;;;;;6208380;23;20162;-90
2024/02/28 11:05:50;;;;;;;84.90;27.20;;;;;;;;;;6211084;23;20190;-91
2024/02/28 11:08:57;;;;;;;90.25;28.27;;;;;;;;;;6209401;23;20167;-91
2024/02/28 11:12:06;;;;;;;83.80;27.85;;;;;;;;;;6208008;23;20245;-91
2024/02/28 11:15:18;;;;;;;83.47;27.65;;;;;;;;;;6210292;23;20179;-91
2024/02/28 11:18:23;;;;;;;89.90;28.27;;;;;;;;;;6208266;23;20182;-92
2024/02/28 11:21:29;;;;;;;84.90;28.20;;;;;;;;;;6208567;23;20168;-91
2024/02/28 11:24:36;;;;;;;83.57;28.88;;;;;;;;;;6208906;23;20194;-91
2024/02/28 11:28:02;;;;;;;85.70;28.00;;;;;;;;;;6208577;23;20179;-91
2024/02/28 11:31:08;;;;;;;86.22;26.27;;;;;;;;;;6205015;23;20171;-93
2024/02/28 11:34:13;;;;;;;91.43;28.65;;;;;;;;;;6207549;23;20492;-91
2024/02/28 11:37:30;;;;;;;83.93;27.33;;;;;;;;;;6228898;23;20166;-91
2024/02/28 11:40:35;;;;;;;92.28;28.15;;;;;;;;;;6204431;23;20497;-92
2024/02/28 11:43:42;;;;;;;87.03;27.13;;;;;;;;;;6205277;23;20167;-92
2024/02/28 11:46:47;;;;;;;88.03;27.58;;;;;;;;;;6206502;23;20538;-91
2024/02/28 11:49:52;;;;;;;85.93;28.30;;;;;;;;;;6207135;23;20246;-92
2024/02/28 11:52:58;;;;;;;75.97;26.58;;;;;;;;;;6206726;23;20171;-91
2024/02/28 11:56:04;;;;;;;82.85;26.77;;;;;;;;;;6207436;23;20171;-92
2024/02/28 11:59:13;;;;;;;87.88;28.50;;;;;;;;;;6206430;23;20159;-93
2024/02/28 12:02:17;;;;;;;76.55;27.90;;;;;;;;;;6205384;23;20491;-92
2024/02/28 12:05:22;;;;;;;79.78;26.88;;;;;;;;;;6206431;23;20194;-92
2024/02/28 12:08:27;;;;;;;82.32;27.88;;;;;;;;;;6207194;23;20171;-92
2024/02/28 12:11:33;;;;;;;85.57;27.80;;;;;;;;;;6211034;23;20174;-92
2024/02/28 12:14:41;;;;;;;77.00;26.45;;;;;;;;;;6210530;23;20167;-93
2024/02/28 12:17:47;;;;;;;74.35;26.92;;;;;;;;;;6208972;23;20214;-92
2024/02/28 12:20:52;;;;;;;80.90;26.70;;;;;;;;;;6208786;23;20175;-92
2024/02/28 12:23:58;;;;;;;85.90;26.67;;;;;;;;;;6208383;23;20228;-93
2024/02/28 12:27:04;;;;;;;89.43;26.67;;;;;;;;;;6207823;23;20692;-91
2024/02/28 12:30:13;;;;;;;75.18;26.33;;;;;;;;;;6209263;23;20167;-92
2024/02/28 12:33:18;;;;;;;78.53;26.80;;;;;;;;;;6211811;23;20176;-91
2024/02/28 12:36:23;;;;;;;73.15;26.17;;;;;;;;;;6212130;23;20190;-92
2024/02/28 12:39:28;;;;;;;82.70;26.80;;;;;;;;;;6209909;23;20167;-93
2024/02/28 12:42:33;;;;;;;80.90;27.77;;;;;;;;;;6210343;23;20172;-92
2024/02/28 12:45:40;;;;;;;82.93;27.88;;;;;;;;;;6209408;23;20195;-90
2024/02/28 12:48:47;;;;;;;85.07;28.98;;;;;;;;;;6210266;23;20151;-91
2024/02/28 12:51:52;;;;;;;73.40;26.13;;;;;;;;;;6209028;23;20172;-92
2024/02/28 12:54:57;;;;;;;76.10;25.65;;;;;;;;;;6211559;23;20257;-92
2024/02/28 12:58:05;;;;;;;76.78;25.67;;;;;;;;;;6211350;23;20167;-91
2024/02/28 13:01:11;;;;;;;74.60;26.40;;;;;;;;;;6210076;23;20249;-91
2024/02/28 13:04:16;;;;;;;86.72;27.30;;;;;;;;;;6208924;23;20167;-91
2024/02/28 13:07:22;;;;;;;79.18;26.15;;;;;;;;;;6208420;23;20171;-91
2024/02/28 13:10:27;;;;;;;71.45;25.55;;;;;;;;;;6209101;23;20190;-91
2024/02/28 13:13:33;;;;;;;71.53;26.13;;;;;;;;;;6207444;23;20598;-91
2024/02/28 13:16:39;;;;;;;75.63;25.63;;;;;;;;;;6227214;23;20604;-91
2024/02/28 13:19:46;;;;;;;67.15;25.10;;;;;;;;;;6206937;23;20230;-91
2024/02/28 13:22:52;;;;;;;78.68;26.88;;;;;;;;;;6207801;23;20194;-91
2024/02/28 13:25:57;;;;;;;70.22;23.85;;;;;;;;;;6210001;23;20179;-91
2024/02/28 13:29:02;;;;;;;74.35;24.52;;;;;;;;;;6208991;23;20199;-92
2024/02/28 13:32:09;;;;;;;73.07;26.17;;;;;;;;;;6206633;23;20167;-91
2024/02/28 13:35:14;;;;;;;72.05;24.00;;;;;;;;;;6210122;23;20162;-92
2024/02/28 13:38:20;;;;;;;72.53;25.27;;;;;;;;;;6208112;23;20207;-91
2024/02/28 13:41:35;;;;;;;69.13;24.15;;;;;;;;;;6212617;23;20171;-90
2024/02/28 13:44:44;;;;;;;72.35;24.63;;;;;;;;;;6210983;23;20190;-91
2024/02/28 13:47:52;;;;;;;69.05;26.38;;;;;;;;;;6209106;23;20194;-90
2024/02/28 13:50:58;;;;;;;69.65;24.95;;;;;;;;;;6205704;23;20171;-91
2024/02/28 13:54:03;;;;;;;66.60;25.02;;;;;;;;;;6207435;23;20167;-91
2024/02/28 13:57:08;;;;;;;67.35;25.60;;;;;;;;;;6206673;23;20167;-92
2024/02/28 19:55:04;;;;;;;76.55;28.17;;;;;;;;;;6185661;22;20211;-91
2024/02/28 19:58:12;;;;;;;65.25;26.73;;;;;;;;;;6208971;23;20209;-92
2024/02/28 20:01:20;;;;;;;74.00;28.70;;;;;;;;;;6211876;23;20182;-93
2024/02/28 20:04:25;;;;;;;73.07;29.33;;;;;;;;;;6214036;23;20171;-91
2024/02/28 20:07:31;;;;;;;130.90;50.15;;;;;;;;;;6211206;23;20171;-91
2024/02/28 20:10:37;;;;;;;73.53;30.00;;;;;;;;;;6209437;23;20167;-91
2024/02/28 20:13:47;;;;;;;70.43;28.85;;;;;;;;;;6209912;23;20167;-92
2024/02/28 20:16:53;;;;;;;72.20;27.70;;;;;;;;;;6210126;23;20179;-92
2024/02/28 20:19:58;;;;;;;66.55;26.80;;;;;;;;;;6209320;23;20167;-91
2024/02/28 20:23:03;;;;;;;62.05;26.58;;;;;;;;;;6209200;23;20250;-92
2024/02/28 20:26:10;;;;;;;73.72;27.88;;;;;;;;;;6207120;23;20306;-92
2024/02/28 20:29:16;;;;;;;66.93;27.52;;;;;;;;;;6211110;23;20163;-90
2024/02/28 20:32:22;;;;;;;65.15;27.05;;;;;;;;;;6211254;23;20206;-91
2024/02/28 20:35:28;;;;;;;64.78;27.88;;;;;;;;;;6210961;23;20478;-92
2024/02/28 20:38:34;;;;;;;78.43;30.80;;;;;;;;;;6210213;23;20242;-92
2024/02/28 20:41:41;;;;;;;77.10;30.25;;;;;;;;;;6209184;23;20254;-91
2024/02/28 20:44:47;;;;;;;70.07;27.55;;;;;;;;;;6210648;23;20159;-92
2024/02/28 20:47:52;;;;;;;67.78;26.52;;;;;;;;;;6210674;23;20756;-90
2024/02/28 20:51:00;;;;;;;68.07;27.63;;;;;;;;;;6212123;23;20163;-91
2024/02/28 20:54:05;;;;;;;92.40;31.60;;;;;;;;;;6213788;23;20172;-91
2024/02/28 20:57:12;;;;;;;78.22;28.50;;;;;;;;;;6213142;23;20170;-92
2024/02/28 21:00:17;;;;;;;76.38;28.92;;;;;;;;;;6213155;23;20239;-91
2024/02/28 21:03:23;;;;;;;63.85;26.25;;;;;;;;;;6214595;23;20244;-92
2024/02/28 21:06:29;;;;;;;69.53;28.30;;;;;;;;;;6213560;23;20191;-90
2024/02/28 21:09:35;;;;;;;70.20;27.17;;;;;;;;;;6215017;23;20163;-91
2024/02/28 21:12:47;;;;;;;65.72;27.25;;;;;;;;;;6215457;23;20218;-91
2024/02/28 21:15:52;;;;;;;67.55;26.98;;;;;;;;;;6213054;23;20163;-92
2024/02/28 21:18:57;;;;;;;65.90;25.45;;;;;;;;;;6210834;23;20170;-92
2024/02/28 21:22:04;;;;;;;63.28;25.95;;;;;;;;;;6210460;23;20174;-92
2024/02/28 21:25:09;;;;;;;63.35;26.42;;;;;;;;;;6229362;23;20172;-91
2024/02/28 21:28:17;;;;;;;62.13;25.23;;;;;;;;;;6212974;23;20227;-91
2024/02/28 21:31:23;;;;;;;70.32;25.73;;;;;;;;;;6213477;23;20545;-92
2024/02/28 21:34:30;;;;;;;62.67;24.77;;;;;;;;;;6216781;23;20163;-92
2024/02/28 21:37:40;;;;;;;65.88;26.65;;;;;;;;;;6219286;23;20223;-93
2024/02/28 21:44:28;;;;;;;76.88;26.80;;;;;;;;;;6214652;23;20221;-92
2024/02/28 21:47:35;;;;;;;66.63;26.20;;;;;;;;;;6215585;23;20214;-92
2024/02/28 21:50:40;;;;;;;66.00;26.70;;;;;;;;;;6213941;23;20198;-92
2024/02/28 21:53:47;;;;;;;69.20;26.33;;;;;;;;;;6212825;23;20167;-92
2024/02/28 21:56:52;;;;;;;66.75;25.30;;;;;;;;;;6213186;23;20166;-93
2024/02/28 21:59:59;;;;;;;61.95;25.58;;;;;;;;;;6211100;23;20171;-92
2024/02/28 22:03:05;;;;;;;72.63;26.05;;;;;;;;;;6211522;23;20194;-91
2024/02/28 22:06:10;;;;;;;65.75;25.35;;;;;;;;;;6214678;23;20187;-91
2024/02/28 22:09:15;;;;;;;61.25;25.85;;;;;;;;;;6230215;23;20163;-91
2024/02/28 22:12:21;;;;;;;58.58;25.67;;;;;;;;;;6216219;23;20163;-92
2024/02/28 22:15:28;;;;;;;66.40;27.08;;;;;;;;;;6213608;23;20218;-92
2024/02/28 22:18:34;;;;;;;70.07;25.63;;;;;;;;;;6211583;23;20220;-93
2024/02/28 22:21:40;;;;;;;65.90;25.27;;;;;;;;;;6229268;23;20170;-91
2024/02/28 22:24:46;;;;;;;64.97;25.83;;;;;;;;;;6211232;23;20308;-90
2024/02/28 22:27:52;;;;;;;61.05;24.58;;;;;;;;;;6212001;23;20222;-90
2024/02/28 22:30:59;;;;;;;60.58;25.13;;;;;;;;;;6208664;23;20171;-92
2024/02/28 22:34:04;;;;;;;61.08;24.83;;;;;;;;;;6210244;23;20163;-90
2024/02/28 22:37:09;;;;;;;62.55;25.15;;;;;;;;;;6211841;23;20171;-90
2024/02/28 22:40:14;;;;;;;58.30;24.98;;;;;;;;;;6211707;23;20198;-91
2024/02/28 22:43:19;;;;;;;60.85;25.20;;;;;;;;;;6211872;23;20166;-91
2024/02/28 22:46:26;;;;;;;60.08;24.70;;;;;;;;;;6210986;23;20647;-90
2024/02/28 22:49:31;;;;;;;65.03;25.52;;;;;;;;;;6210851;23;20171;-91
2024/02/28 22:52:37;;;;;;;62.42;25.15;;;;;;;;;;6208932;23;20244;-91
2024/02/28 22:55:42;;;;;;;64.95;25.48;;;;;;;;;;6209139;23;20270;-92
2024/02/28 22:58:48;;;;;;;64.18;25.75;;;;;;;;;;6211417;23;20167;-91
2024/02/28 23:01:55;;;;;;;64.97;26.13;;;;;;;;;;6210672;23;20278;-90
2024/02/28 23:05:00;;;;;;;63.85;25.50;;;;;;;;;;6210684;23;20166;-91
2024/02/28 23:08:06;;;;;;;68.38;25.38;;;;;;;;;;6210693;23;20167;-91
2024/02/28 23:11:12;;;;;;;65.43;26.08;;;;;;;;;;6212955;23;20159;-92
2024/02/28 23:14:18;;;;;;;63.22;26.38;;;;;;;;;;6211030;23;20187;-91
2024/02/28 23:17:25;;;;;;;64.43;25.13;;;;;;;;;;6209103;23;20175;-91
2024/02/28 23:20:33;;;;;;;71.38;26.90;;;;;;;;;;6210195;23;20143;-91
2024/02/28 23:23:39;;;;;;;71.10;26.35;;;;;;;;;;6207638;23;20171;-92
2024/02/28 23:26:44;;;;;;;64.90;25.50;;;;;;;;;;6207970;23;20649;-91
2024/02/28 23:29:50;;;;;;;70.55;26.95;;;;;;;;;;6209440;23;20503;-91
2024/02/28 23:32:59;;;;;;;69.53;26.88;;;;;;;;;;6207320;23;20607;-91
2024/02/28 23:36:05;;;;;;;62.47;25.35;;;;;;;;;;6205658;23;20156;-89
2024/02/28 23:39:10;;;;;;;65.07;26.02;;;;;;;;;;6208408;23;20554;-90
2024/02/28 23:42:19;;;;;;;63.47;25.83;;;;;;;;;;6208169;23;20171;-91
2024/02/28 23:45:25;;;;;;;61.88;25.20;;;;;;;;;;6208314;23;20611;-90
2024/02/28 23:48:31;;;;;;;61.13;25.85;;;;;;;;;;6207221;23;20508;-91
2024/02/28 23:51:36;;;;;;;57.70;24.58;;;;;;;;;;6206989;23;20180;-89
2024/02/28 23:54:42;;;;;;;62.17;24.98;;;;;;;;;;6208537;23;20155;-91
2024/02/28 23:57:47;;;;;;;64.53;24.98;;;;;;;;;;6209166;23;20222;-92
